createdAt,value
2022-11-07T00:02:11.381Z,11.80
2022-11-07T00:04:58.107Z,11.90
2022-11-07T00:07:44.629Z,11.90
2022-11-07T00:10:31.050Z,11.90
2022-11-07T00:13:17.577Z,11.90
2022-11-07T00:16:08.710Z,11.90
2022-11-07T00:18:55.206Z,11.90
2022-11-07T00:21:41.858Z,12.00
2022-11-07T00:24:28.400Z,12.00
2022-11-07T00:27:14.978Z,11.90
2022-11-07T00:30:01.801Z,12.00
2022-11-07T00:32:49.605Z,12.00
2022-11-07T00:35:36.425Z,12.00
2022-11-07T00:38:22.956Z,12.00
2022-11-07T00:41:10.169Z,12.00
2022-11-07T00:43:56.906Z,12.10
2022-11-07T00:46:43.219Z,12.10
2022-11-07T00:49:30.970Z,12.10
2022-11-07T00:52:17.778Z,12.10
2022-11-07T00:55:04.742Z,12.10
2022-11-07T00:57:51.215Z,12.00
2022-11-07T01:00:38.349Z,12.10
2022-11-07T01:03:43.073Z,12.10
2022-11-07T01:06:33.014Z,12.10
2022-11-07T01:09:21.254Z,12.20
2022-11-07T01:12:08.459Z,12.20
2022-11-07T01:14:55.280Z,12.20
2022-11-07T01:17:41.681Z,12.20
2022-11-07T01:20:28.138Z,12.20
2022-11-07T01:23:16.437Z,12.20
2022-11-07T01:26:06.560Z,12.20
2022-11-07T01:28:53.277Z,12.20
2022-11-07T01:31:39.718Z,12.20
2022-11-07T01:34:26.106Z,12.30
2022-11-07T01:37:12.664Z,12.20
2022-11-07T01:40:00.803Z,12.20
2022-11-07T01:42:47.541Z,12.20
2022-11-07T01:45:33.977Z,12.30
2022-11-07T01:48:20.431Z,12.30
2022-11-07T01:51:08.607Z,12.30
2022-11-07T01:53:56.122Z,12.20
2022-11-07T01:56:45.435Z,12.30
2022-11-07T01:59:34.613Z,12.30
2022-11-07T02:02:21.408Z,12.20
2022-11-07T02:05:10.064Z,12.30
2022-11-07T02:07:57.819Z,12.30
2022-11-07T02:10:45.539Z,12.30
2022-11-07T02:13:34.121Z,12.30
2022-11-07T02:16:20.710Z,12.30
2022-11-07T02:19:12.071Z,12.20
2022-11-07T02:22:04.483Z,12.20
2022-11-07T02:24:55.088Z,12.30
2022-11-07T02:27:43.230Z,12.30
2022-11-07T02:30:33.911Z,12.30
2022-11-07T02:33:22.150Z,12.30
2022-11-07T02:36:14.747Z,12.30
2022-11-07T02:39:01.818Z,12.30
2022-11-07T02:41:50.209Z,12.30
2022-11-07T02:44:37.046Z,12.30
2022-11-07T02:47:23.785Z,12.20
2022-11-07T02:50:12.294Z,12.30
2022-11-07T02:52:58.995Z,12.30
2022-11-07T02:55:45.547Z,12.30
2022-11-07T02:58:33.839Z,12.40
2022-11-07T03:01:20.851Z,12.40
2022-11-07T03:04:07.767Z,12.40
2022-11-07T03:06:54.501Z,12.40
2022-11-07T03:09:40.804Z,12.40
2022-11-07T03:12:27.319Z,12.40
2022-11-07T03:15:15.310Z,12.40
2022-11-07T03:18:02.003Z,12.40
2022-11-07T03:20:48.522Z,12.40
2022-11-07T03:23:36.517Z,12.50
2022-11-07T03:26:22.986Z,12.40
2022-11-07T03:29:09.489Z,12.40
2022-11-07T03:31:57.390Z,12.40
2022-11-07T03:34:44.219Z,12.40
2022-11-07T03:37:30.634Z,12.50
2022-11-07T03:40:18.039Z,12.50
2022-11-07T03:43:04.675Z,12.50
2022-11-07T03:45:51.305Z,12.40
2022-11-07T03:48:39.087Z,12.50
2022-11-07T03:51:26.019Z,12.40
2022-11-07T03:54:12.312Z,12.40
2022-11-07T03:56:58.696Z,12.40
2022-11-07T03:59:45.283Z,12.40
2022-11-07T04:02:31.772Z,12.30
2022-11-07T04:05:20.160Z,12.30
2022-11-07T04:08:07.098Z,12.30
2022-11-07T04:10:53.693Z,12.30
2022-11-07T04:13:57.427Z,12.30
2022-11-07T04:17:02.117Z,12.40
2022-11-07T04:19:49.538Z,12.30
2022-11-07T04:22:37.483Z,12.30
2022-11-07T04:25:44.261Z,12.30
2022-11-07T04:28:29.933Z,12.40
2022-11-07T04:31:16.513Z,12.40
2022-11-07T04:34:03.012Z,12.40
2022-11-07T04:36:49.381Z,12.40
2022-11-07T04:39:37.387Z,12.40
2022-11-07T04:42:24.189Z,12.40
2022-11-07T04:45:11.857Z,12.40
2022-11-07T04:47:58.662Z,12.40
2022-11-07T04:50:45.935Z,12.50
2022-11-07T04:53:32.522Z,12.50
2022-11-07T04:56:20.427Z,12.40
2022-11-07T04:59:07.318Z,12.50
2022-11-07T05:01:53.854Z,12.50
2022-11-07T05:04:40.855Z,12.50
2022-11-07T05:07:27.295Z,12.50
2022-11-07T05:10:18.921Z,12.60
2022-11-07T05:13:06.669Z,12.50
2022-11-07T05:15:53.667Z,12.60
2022-11-07T05:18:40.222Z,12.60
2022-11-07T05:21:26.671Z,12.60
2022-11-07T05:24:13.967Z,12.60
2022-11-07T05:27:00.817Z,12.50
2022-11-07T05:29:49.244Z,12.50
2022-11-07T05:32:38.045Z,12.50
2022-11-07T05:35:25.156Z,12.50
2022-11-07T05:38:12.457Z,12.50
2022-11-07T05:41:03.291Z,12.60
2022-11-07T05:43:49.914Z,12.50
2022-11-07T05:46:37.817Z,12.50
2022-11-07T05:49:24.684Z,12.60
2022-11-07T05:52:11.404Z,12.60
2022-11-07T05:54:57.850Z,12.60
2022-11-07T05:57:44.339Z,12.60
2022-11-07T06:00:30.803Z,12.60
2022-11-07T06:03:20.237Z,12.60
2022-11-07T06:06:08.015Z,12.70
2022-11-07T06:08:54.464Z,12.70
2022-11-07T06:11:40.895Z,12.70
2022-11-07T06:14:28.901Z,12.70
2022-11-07T06:17:15.442Z,12.70
2022-11-07T06:20:03.279Z,12.70
2022-11-07T06:22:49.854Z,12.70
2022-11-07T06:25:37.313Z,12.60
2022-11-07T06:28:24.055Z,12.70
2022-11-07T06:31:12.178Z,12.70
2022-11-07T06:33:58.879Z,12.70
2022-11-07T06:36:54.023Z,12.70
2022-11-07T06:39:45.445Z,12.60
2022-11-07T06:42:32.403Z,12.70
2022-11-07T06:45:19.026Z,12.70
2022-11-07T06:48:06.468Z,12.70
2022-11-07T06:50:58.081Z,12.70
2022-11-07T06:53:45.869Z,12.80
2022-11-07T06:56:32.713Z,12.80
2022-11-07T06:59:19.084Z,12.80
2022-11-07T07:02:05.798Z,12.70
2022-11-07T07:04:52.838Z,12.80
2022-11-07T07:07:39.226Z,12.80
2022-11-07T07:10:27.285Z,12.90
2022-11-07T07:13:15.376Z,12.90
2022-11-07T07:16:02.843Z,12.90
2022-11-07T07:18:49.155Z,12.80
2022-11-07T07:21:35.788Z,12.80
2022-11-07T07:24:22.502Z,12.90
2022-11-07T07:27:10.698Z,12.80
2022-11-07T07:29:57.262Z,12.80
2022-11-07T07:32:43.911Z,12.90
2022-11-07T07:35:30.443Z,12.80
2022-11-07T07:38:16.999Z,12.90
2022-11-07T07:41:03.381Z,12.90
2022-11-07T07:43:51.227Z,12.90
2022-11-07T07:46:38.020Z,12.90
2022-11-07T07:49:24.693Z,13.00
2022-11-07T07:52:11.078Z,13.00
2022-11-07T07:54:57.535Z,13.00
2022-11-07T07:57:44.141Z,13.00
2022-11-07T08:00:32.243Z,13.00
2022-11-07T08:03:19.378Z,13.00
2022-11-07T08:06:06.986Z,13.10
2022-11-07T08:08:53.395Z,13.10
2022-11-07T08:11:39.982Z,13.00
2022-11-07T08:14:26.494Z,13.10
2022-11-07T08:17:14.251Z,13.10
2022-11-07T08:20:00.898Z,13.00
2022-11-07T08:22:47.515Z,13.10
2022-11-07T08:25:34.291Z,13.10
2022-11-07T08:28:22.158Z,13.10
2022-11-07T08:31:11.941Z,13.20
2022-11-07T08:34:00.477Z,13.20
2022-11-07T08:36:47.318Z,13.20
2022-11-07T08:39:33.715Z,13.20
2022-11-07T08:42:20.222Z,13.10
2022-11-07T08:45:08.245Z,13.10
2022-11-07T08:47:58.314Z,13.10
2022-11-07T08:50:46.657Z,13.20
2022-11-07T08:53:33.981Z,13.10
2022-11-07T08:56:20.542Z,13.10
2022-11-07T08:59:06.986Z,13.20
2022-11-07T09:02:39.123Z,13.20
2022-11-07T09:05:00.936Z,13.30
2022-11-07T09:07:48.919Z,13.30
2022-11-07T09:10:35.985Z,13.30
2022-11-07T09:13:22.656Z,13.40
2022-11-07T09:16:09.434Z,13.30
2022-11-07T09:18:56.110Z,13.40
2022-11-07T09:21:45.444Z,13.40
2022-11-07T09:24:33.290Z,13.50
2022-11-07T09:27:20.118Z,13.50
2022-11-07T09:30:07.671Z,13.50
2022-11-07T09:32:56.730Z,13.50
2022-11-07T09:35:43.419Z,13.50
2022-11-07T09:38:30.483Z,13.60
2022-11-07T09:41:30.147Z,13.60
2022-11-07T09:44:37.608Z,13.60
2022-11-07T09:47:31.187Z,13.60
2022-11-07T09:50:27.455Z,13.70
2022-11-07T09:53:18.562Z,13.70
2022-11-07T09:56:06.766Z,13.70
2022-11-07T09:58:55.377Z,13.70
2022-11-07T10:01:42.008Z,13.70
2022-11-07T10:04:28.889Z,13.70
2022-11-07T10:07:23.557Z,13.80
2022-11-07T10:10:17.566Z,13.80
2022-11-07T10:13:41.327Z,13.80
2022-11-07T10:16:43.383Z,13.90
2022-11-07T10:19:47.489Z,13.90
2022-11-07T10:22:46.798Z,14.00
2022-11-07T10:25:40.994Z,14.00
2022-11-07T10:28:28.286Z,14.00
2022-11-07T10:31:17.129Z,14.10
2022-11-07T10:34:13.214Z,14.10
2022-11-07T10:36:59.679Z,14.20
2022-11-07T10:39:46.306Z,14.20
2022-11-07T10:42:33.522Z,14.20
2022-11-07T10:45:20.477Z,14.20
2022-11-07T10:48:07.867Z,14.30
2022-11-07T10:50:56.541Z,14.30
2022-11-07T10:53:45.665Z,14.40
2022-11-07T10:56:45.095Z,14.40
2022-11-07T10:59:36.483Z,14.60
2022-11-07T11:02:25.078Z,14.80
2022-11-07T11:05:23.931Z,14.80
2022-11-07T11:08:16.853Z,15.00
2022-11-07T11:11:14.157Z,15.20
2022-11-07T11:14:12.060Z,15.20
2022-11-07T11:16:59.220Z,15.20
2022-11-07T11:19:52.556Z,15.20
2022-11-07T11:22:43.461Z,15.20
2022-11-07T11:25:31.230Z,15.20
2022-11-07T11:28:25.243Z,15.20
2022-11-07T11:31:22.886Z,15.30
2022-11-07T11:34:15.811Z,15.20
2022-11-07T11:37:07.410Z,15.10
2022-11-07T11:40:08.491Z,15.20
2022-11-07T11:43:05.132Z,15.20
2022-11-07T11:46:03.989Z,15.20
2022-11-07T11:48:54.911Z,15.30
2022-11-07T11:51:45.775Z,15.30
2022-11-07T11:54:32.313Z,15.30
2022-11-07T11:57:23.894Z,15.30
2022-11-07T12:00:17.124Z,15.30
2022-11-07T12:03:21.147Z,15.40
2022-11-07T12:06:15.079Z,15.50
2022-11-07T12:09:27.543Z,15.70
2022-11-07T12:12:24.363Z,15.70
2022-11-07T12:15:31.992Z,15.70
2022-11-07T12:18:25.977Z,15.80
2022-11-07T12:21:26.864Z,15.90
2022-11-07T12:24:26.490Z,15.80
2022-11-07T12:27:26.721Z,15.60
2022-11-07T12:30:22.286Z,15.60
2022-11-07T12:33:22.682Z,15.60
2022-11-07T12:36:17.316Z,15.60
2022-11-07T12:39:31.390Z,15.40
2022-11-07T12:42:27.802Z,15.40
2022-11-07T12:45:22.380Z,15.40
2022-11-07T12:48:46.888Z,15.30
2022-11-07T12:51:46.040Z,15.30
2022-11-07T12:54:47.616Z,15.30
2022-11-07T12:57:38.154Z,15.20
2022-11-07T13:00:29.995Z,15.20
2022-11-07T13:03:35.334Z,15.20
2022-11-07T13:06:28.436Z,15.20
2022-11-07T13:09:25.803Z,15.30
2022-11-07T13:12:22.845Z,15.30
2022-11-07T13:15:12.539Z,15.20
2022-11-07T13:18:00.354Z,15.10
2022-11-07T13:20:47.298Z,14.90
2022-11-07T13:23:34.243Z,14.80
2022-11-07T13:26:47.099Z,14.70
2022-11-07T13:29:39.376Z,14.50
2022-11-07T13:32:26.070Z,14.50
2022-11-07T13:35:26.810Z,14.50
2022-11-07T13:38:15.240Z,14.50
2022-11-07T13:41:06.274Z,14.60
2022-11-07T13:43:57.730Z,14.60
2022-11-07T13:46:50.059Z,14.70
2022-11-07T13:49:44.220Z,14.70
2022-11-07T13:52:41.483Z,14.80
2022-11-07T13:55:34.237Z,14.70
2022-11-07T13:58:21.875Z,14.60
2022-11-07T14:01:11.827Z,14.60
2022-11-07T14:03:58.480Z,14.60
2022-11-07T14:06:45.542Z,14.60
2022-11-07T14:09:34.676Z,14.60
2022-11-07T14:12:22.876Z,14.70
2022-11-07T14:15:16.711Z,14.60
2022-11-07T14:18:03.377Z,14.70
2022-11-07T14:20:50.941Z,14.70
2022-11-07T14:23:37.606Z,14.70
2022-11-07T14:26:28.297Z,14.70
2022-11-07T14:29:22.650Z,14.60
2022-11-07T14:32:09.351Z,14.60
2022-11-07T14:34:56.521Z,14.70
2022-11-07T14:37:43.456Z,14.70
2022-11-07T14:40:30.432Z,14.60
2022-11-07T14:43:21.729Z,14.70
2022-11-07T14:46:13.732Z,14.60
2022-11-07T14:49:00.870Z,14.60
2022-11-07T14:51:48.962Z,14.60
2022-11-07T14:54:38.963Z,14.60
2022-11-07T14:57:25.458Z,14.60
2022-11-07T15:00:17.563Z,14.50
2022-11-07T15:03:04.703Z,14.60
2022-11-07T15:05:51.437Z,14.60
2022-11-07T15:08:38.666Z,14.70
2022-11-07T15:11:29.708Z,14.60
2022-11-07T15:14:25.381Z,14.70
2022-11-07T15:17:26.160Z,14.60
2022-11-07T15:20:21.728Z,14.60
2022-11-07T15:23:29.317Z,14.60
2022-11-07T15:26:22.800Z,14.70
2022-11-07T15:29:21.889Z,14.60
2022-11-07T15:32:14.642Z,14.70
2022-11-07T15:35:23.115Z,14.60
2022-11-07T15:38:18.420Z,14.60
2022-11-07T15:41:05.082Z,14.70
2022-11-07T15:43:51.748Z,14.70
2022-11-07T15:46:40.135Z,14.60
2022-11-07T15:49:27.346Z,14.60
2022-11-07T15:52:15.599Z,14.60
2022-11-07T15:55:02.295Z,14.60
2022-11-07T15:57:50.830Z,14.70
2022-11-07T16:00:37.518Z,14.60
2022-11-07T16:03:26.037Z,14.70
2022-11-07T16:06:17.676Z,14.60
2022-11-07T16:09:12.680Z,14.70
2022-11-07T16:11:59.356Z,14.60
2022-11-07T16:14:45.802Z,14.70
2022-11-07T16:17:33.311Z,14.70
2022-11-07T16:20:22.166Z,14.60
2022-11-07T16:23:10.416Z,14.70
2022-11-07T16:25:58.210Z,14.70
2022-11-07T16:28:46.128Z,14.70
2022-11-07T16:31:33.518Z,14.70
2022-11-07T16:34:20.125Z,14.70
2022-11-07T16:37:06.695Z,14.70
2022-11-07T16:39:53.195Z,14.70
2022-11-07T16:42:41.395Z,14.70
2022-11-07T16:45:27.900Z,14.80
2022-11-07T16:48:20.790Z,14.80
2022-11-07T16:51:07.644Z,14.80
2022-11-07T16:53:54.273Z,14.80
2022-11-07T16:56:41.961Z,14.80
2022-11-07T16:59:30.049Z,14.80
2022-11-07T17:02:21.076Z,14.80
2022-11-07T17:05:09.035Z,14.80
2022-11-07T17:07:55.816Z,14.80
2022-11-07T17:10:42.430Z,14.80
2022-11-07T17:13:28.997Z,14.80
2022-11-07T17:16:19.820Z,14.80
2022-11-07T17:19:07.112Z,14.80
2022-11-07T17:21:53.792Z,14.80
2022-11-07T17:24:40.562Z,14.80
2022-11-07T17:27:27.812Z,14.80
2022-11-07T17:30:18.900Z,14.80
2022-11-07T17:33:06.864Z,14.80
2022-11-07T17:35:56.499Z,14.80
2022-11-07T17:38:43.394Z,14.80
2022-11-07T17:41:30.295Z,14.80
2022-11-07T17:44:17.394Z,14.90
2022-11-07T17:47:04.330Z,14.90
2022-11-07T17:49:52.193Z,14.90
2022-11-07T17:52:39.000Z,14.90
2022-11-07T17:55:25.709Z,14.90
2022-11-07T17:58:12.528Z,14.90
2022-11-07T18:00:58.857Z,14.90
2022-11-07T18:03:45.585Z,14.90
2022-11-07T18:06:36.083Z,14.80
2022-11-07T18:09:22.768Z,14.80
2022-11-07T18:12:09.691Z,14.80
2022-11-07T18:14:56.583Z,14.80
2022-11-07T18:17:44.386Z,14.80
2022-11-07T18:20:31.251Z,14.80
2022-11-07T18:23:18.986Z,14.80
2022-11-07T18:26:07.553Z,14.90
2022-11-07T18:28:55.393Z,14.80
2022-11-07T18:31:42.337Z,14.90
2022-11-07T18:34:29.263Z,14.90
2022-11-07T18:37:15.659Z,14.90
2022-11-07T18:40:03.399Z,14.90
2022-11-07T18:42:50.278Z,14.80
2022-11-07T18:45:36.926Z,14.90
2022-11-07T18:48:23.580Z,14.90
2022-11-07T18:51:12.926Z,14.90
2022-11-07T18:54:01.734Z,14.90
2022-11-07T18:56:49.969Z,14.90
2022-11-07T18:59:36.626Z,14.90
2022-11-07T19:02:23.668Z,14.90
2022-11-07T19:05:10.497Z,14.90
2022-11-07T19:07:56.809Z,14.90
2022-11-07T19:10:43.891Z,14.90
2022-11-07T19:13:32.086Z,14.80
2022-11-07T19:16:20.741Z,14.90
2022-11-07T19:19:07.544Z,14.80
2022-11-07T19:21:54.043Z,14.80
2022-11-07T19:24:40.802Z,14.80
2022-11-07T19:27:29.292Z,14.90
2022-11-07T19:30:17.347Z,14.80
2022-11-07T19:33:07.971Z,14.80
2022-11-07T19:36:00.681Z,14.80
2022-11-07T19:38:48.365Z,14.80
2022-11-07T19:41:34.922Z,14.80
2022-11-07T19:44:21.285Z,14.80
2022-11-07T19:47:09.186Z,14.70
2022-11-07T19:49:56.087Z,14.80
2022-11-07T19:52:43.046Z,14.70
2022-11-07T19:55:29.791Z,14.70
2022-11-07T19:58:16.871Z,14.70
2022-11-07T20:01:03.468Z,14.80
2022-11-07T20:03:53.058Z,14.80
2022-11-07T20:06:39.832Z,14.80
2022-11-07T20:09:26.512Z,14.80
2022-11-07T20:12:14.107Z,14.80
2022-11-07T20:15:01.016Z,14.80
2022-11-07T20:17:47.899Z,14.80
2022-11-07T20:20:36.022Z,14.80
2022-11-07T20:23:22.743Z,14.70
2022-11-07T20:26:10.717Z,14.70
2022-11-07T20:28:57.254Z,14.80
2022-11-07T20:31:45.264Z,14.80
2022-11-07T20:34:31.807Z,14.80
2022-11-07T20:37:20.986Z,14.80
2022-11-07T20:40:08.545Z,14.80
2022-11-07T20:42:55.065Z,14.80
2022-11-07T20:45:41.684Z,14.80
2022-11-07T20:48:29.589Z,14.80
2022-11-07T20:51:17.577Z,14.80
2022-11-07T20:54:05.962Z,14.80
2022-11-07T20:56:52.692Z,14.80
2022-11-07T20:59:41.275Z,14.80
2022-11-07T21:02:28.006Z,14.80
2022-11-07T21:05:18.478Z,14.80
2022-11-07T21:08:06.079Z,14.90
2022-11-07T21:10:55.467Z,14.80
2022-11-07T21:13:45.436Z,14.90
2022-11-07T21:16:35.522Z,14.90
2022-11-07T21:19:22.303Z,14.90
2022-11-07T21:22:08.848Z,14.90
2022-11-07T21:24:55.252Z,14.90
2022-11-07T21:27:43.137Z,14.90
2022-11-07T21:30:29.988Z,14.90
2022-11-07T21:33:16.474Z,14.90
2022-11-07T21:36:03.368Z,14.90
2022-11-07T21:38:49.826Z,14.90
2022-11-07T21:41:36.745Z,15.00
2022-11-07T21:44:24.637Z,15.00
2022-11-07T21:47:11.106Z,15.00
2022-11-07T21:49:57.768Z,15.00
2022-11-07T21:52:45.013Z,15.00
2022-11-07T21:55:31.740Z,15.00
2022-11-07T21:58:19.709Z,15.00
2022-11-07T22:01:07.481Z,15.00
2022-11-07T22:04:10.665Z,15.00
2022-11-07T22:06:57.696Z,15.00
2022-11-07T22:09:44.222Z,15.00
2022-11-07T22:12:30.817Z,15.00
2022-11-07T22:15:17.483Z,15.00
2022-11-07T22:18:05.766Z,15.00
2022-11-07T22:20:52.208Z,15.00
2022-11-07T22:23:39.888Z,15.10
2022-11-07T22:26:28.515Z,15.10
2022-11-07T22:29:14.899Z,15.10
2022-11-07T22:32:01.654Z,15.00
2022-11-07T22:34:49.971Z,15.00
2022-11-07T22:37:36.803Z,15.00
2022-11-07T22:40:23.354Z,15.00
2022-11-07T22:43:09.938Z,15.00
2022-11-07T22:45:56.444Z,15.10
2022-11-07T22:48:43.574Z,15.00
2022-11-07T22:51:33.050Z,15.10
2022-11-07T22:54:19.827Z,15.00
2022-11-07T22:57:06.339Z,15.10
2022-11-07T22:59:53.386Z,15.10
2022-11-07T23:02:40.447Z,15.00
2022-11-07T23:05:27.778Z,15.10
2022-11-07T23:08:16.430Z,15.00
2022-11-07T23:11:43.432Z,15.10
2022-11-07T23:14:14.797Z,15.10
2022-11-07T23:17:01.494Z,15.10
2022-11-07T23:19:51.657Z,15.10
2022-11-07T23:22:38.113Z,15.10
2022-11-07T23:25:25.897Z,15.10
2022-11-07T23:28:12.638Z,15.10
2022-11-07T23:30:59.149Z,15.00
2022-11-07T23:33:45.800Z,15.00
2022-11-07T23:36:32.320Z,15.00
2022-11-07T23:39:21.577Z,15.00
2022-11-07T23:42:09.704Z,14.90
2022-11-07T23:45:13.685Z,14.90
2022-11-07T23:48:18.496Z,15.00
2022-11-07T23:51:10.551Z,14.80
2022-11-07T23:54:14.319Z,14.90
2022-11-07T23:57:01.893Z,14.90
